createdAt,value
2022-10-05T00:00:54.609Z,14.71
2022-10-05T00:03:22.667Z,14.72
2022-10-05T00:05:50.283Z,14.72
2022-10-05T00:08:19.173Z,14.71
2022-10-05T00:10:47.075Z,14.71
2022-10-05T00:13:15.006Z,14.71
2022-10-05T00:15:42.699Z,14.71
2022-10-05T00:18:15.977Z,14.70
2022-10-05T00:20:43.538Z,14.70
2022-10-05T00:23:14.063Z,14.69
2022-10-05T00:25:41.508Z,14.69
2022-10-05T00:28:11.360Z,14.68
2022-10-05T00:30:38.823Z,14.68
2022-10-05T00:33:06.288Z,14.66
2022-10-05T00:35:35.283Z,14.65
2022-10-05T00:38:02.719Z,14.65
2022-10-05T00:40:36.265Z,14.64
2022-10-05T00:43:08.046Z,14.64
2022-10-05T00:45:36.842Z,14.63
2022-10-05T00:48:06.715Z,14.64
2022-10-05T00:50:51.855Z,14.63
2022-10-05T00:53:24.436Z,14.63
2022-10-05T00:55:54.696Z,14.64
2022-10-05T00:58:24.035Z,14.63
2022-10-05T01:00:52.556Z,14.62
2022-10-05T01:03:20.700Z,14.62
2022-10-05T01:05:51.341Z,14.62
2022-10-05T01:08:22.231Z,14.62
2022-10-05T01:10:52.564Z,14.63
2022-10-05T01:13:21.846Z,14.63
2022-10-05T01:15:50.478Z,14.62
2022-10-05T01:18:20.223Z,14.62
2022-10-05T01:20:50.935Z,14.61
2022-10-05T01:23:33.275Z,14.61
2022-10-05T01:26:07.056Z,14.62
2022-10-05T01:28:36.838Z,14.61
2022-10-05T01:31:06.001Z,14.60
2022-10-05T01:33:34.315Z,14.59
2022-10-05T01:36:03.756Z,14.59
2022-10-05T01:38:34.521Z,14.59
2022-10-05T01:41:05.050Z,14.58
2022-10-05T01:43:37.076Z,14.58
2022-10-05T01:46:07.701Z,14.58
2022-10-05T01:48:37.869Z,14.58
2022-10-05T01:51:07.404Z,14.57
2022-10-05T01:53:38.149Z,14.57
2022-10-05T01:56:07.435Z,14.56
2022-10-05T01:58:37.263Z,14.57
2022-10-05T02:01:06.509Z,14.56
2022-10-05T02:03:36.676Z,14.56
2022-10-05T02:06:05.698Z,14.56
2022-10-05T02:08:33.520Z,14.53
2022-10-05T02:11:02.029Z,14.53
2022-10-05T02:13:31.849Z,14.52
2022-10-05T02:16:01.382Z,14.51
2022-10-05T02:18:30.091Z,14.49
2022-10-05T02:20:57.567Z,14.49
2022-10-05T02:23:25.380Z,14.49
2022-10-05T02:25:53.434Z,14.48
2022-10-05T02:28:21.637Z,14.46
2022-10-05T02:30:50.309Z,14.45
2022-10-05T02:33:20.434Z,14.44
2022-10-05T02:35:47.869Z,14.43
2022-10-05T02:38:15.710Z,14.41
2022-10-05T02:40:46.314Z,14.40
2022-10-05T02:43:17.757Z,14.38
2022-10-05T02:45:46.644Z,14.37
2022-10-05T02:48:15.759Z,14.37
2022-10-05T02:50:46.390Z,14.35
2022-10-05T02:53:16.121Z,14.34
2022-10-05T02:55:44.781Z,14.34
2022-10-05T02:58:13.356Z,14.32
2022-10-05T03:00:41.922Z,14.32
2022-10-05T03:03:09.990Z,14.32
2022-10-05T03:05:39.032Z,14.31
2022-10-05T03:08:08.849Z,14.30
2022-10-05T03:10:38.350Z,14.29
2022-10-05T03:13:06.678Z,14.28
2022-10-05T03:15:41.558Z,14.27
2022-10-05T03:18:10.133Z,14.26
2022-10-05T03:20:39.263Z,14.25
2022-10-05T03:23:08.821Z,14.24
2022-10-05T03:25:54.064Z,14.22
2022-10-05T03:28:23.668Z,14.22
2022-10-05T03:30:53.291Z,14.22
2022-10-05T03:33:23.122Z,14.21
2022-10-05T03:35:52.165Z,14.22
2022-10-05T03:38:22.279Z,14.23
2022-10-05T03:40:51.975Z,14.22
2022-10-05T03:43:29.839Z,14.22
2022-10-05T03:45:58.276Z,14.23
2022-10-05T03:48:27.145Z,14.23
2022-10-05T03:50:56.670Z,14.23
2022-10-05T03:53:26.698Z,14.21
2022-10-05T03:55:54.700Z,14.21
2022-10-05T03:58:23.392Z,14.21
2022-10-05T04:00:51.457Z,14.22
2022-10-05T04:03:20.123Z,14.24
2022-10-05T04:05:48.090Z,14.23
2022-10-05T04:08:18.171Z,14.23
2022-10-05T04:10:47.977Z,14.22
2022-10-05T04:13:16.701Z,14.22
2022-10-05T04:15:45.362Z,14.24
2022-10-05T04:18:15.790Z,14.23
2022-10-05T04:20:44.260Z,14.22
2022-10-05T04:23:14.446Z,14.22
2022-10-05T04:25:43.032Z,14.23
2022-10-05T04:28:13.220Z,14.23
2022-10-05T04:30:40.984Z,14.25
2022-10-05T04:33:10.114Z,14.23
2022-10-05T04:35:51.199Z,14.23
2022-10-05T04:38:23.363Z,14.23
2022-10-05T04:40:53.851Z,14.23
2022-10-05T04:43:24.920Z,14.22
2022-10-05T04:45:57.253Z,14.21
2022-10-05T04:48:31.873Z,14.22
2022-10-05T04:51:02.161Z,14.23
2022-10-05T04:53:31.305Z,14.22
2022-10-05T04:55:59.286Z,14.22
2022-10-05T04:58:32.390Z,14.21
2022-10-05T05:01:03.698Z,14.21
2022-10-05T05:03:51.333Z,14.21
2022-10-05T05:06:21.980Z,14.21
2022-10-05T05:09:03.106Z,14.21
2022-10-05T05:11:30.583Z,14.21
2022-10-05T05:14:03.392Z,14.20
2022-10-05T05:16:32.991Z,14.21
2022-10-05T05:19:08.222Z,14.21
2022-10-05T05:21:37.988Z,14.23
2022-10-05T05:24:06.767Z,14.21
2022-10-05T05:26:38.991Z,14.21
2022-10-05T05:29:10.039Z,14.22
2022-10-05T05:31:40.002Z,14.23
2022-10-05T05:34:10.012Z,14.21
2022-10-05T05:36:43.815Z,14.22
2022-10-05T05:39:18.545Z,14.21
2022-10-05T05:41:47.491Z,14.22
2022-10-05T05:44:18.689Z,14.22
2022-10-05T05:47:04.913Z,14.21
2022-10-05T05:49:39.233Z,14.21
2022-10-05T05:52:07.743Z,14.21
2022-10-05T05:54:36.413Z,14.21
2022-10-05T05:57:08.987Z,14.22
2022-10-05T05:59:45.347Z,14.22
2022-10-05T06:02:13.653Z,14.22
2022-10-05T06:04:43.694Z,14.24
2022-10-05T06:07:12.230Z,14.22
2022-10-05T06:09:40.913Z,14.23
2022-10-05T06:12:08.772Z,14.23
2022-10-05T06:14:36.477Z,14.24
2022-10-05T06:17:06.343Z,14.24
2022-10-05T06:19:34.514Z,14.23
2022-10-05T06:22:02.497Z,14.24
2022-10-05T06:24:31.087Z,14.23
2022-10-05T06:27:02.274Z,14.24
2022-10-05T06:29:32.510Z,14.25
2022-10-05T06:32:03.428Z,14.24
2022-10-05T06:34:38.867Z,14.24
2022-10-05T06:37:07.268Z,14.25
2022-10-05T06:39:55.444Z,14.25
2022-10-05T06:42:34.192Z,14.25
2022-10-05T06:45:02.263Z,14.26
2022-10-05T06:47:30.995Z,14.26
2022-10-05T06:50:05.144Z,14.25
2022-10-05T06:52:35.479Z,14.26
2022-10-05T06:55:11.874Z,14.26
2022-10-05T06:57:45.301Z,14.25
2022-10-05T07:00:16.346Z,14.25
2022-10-05T07:02:45.643Z,14.26
2022-10-05T07:05:21.194Z,14.27
2022-10-05T07:07:50.271Z,14.27
2022-10-05T07:10:18.853Z,14.26
2022-10-05T07:12:50.785Z,14.26
2022-10-05T07:15:26.023Z,14.28
2022-10-05T07:17:56.459Z,14.28
2022-10-05T07:20:27.006Z,14.28
2022-10-05T07:23:15.352Z,14.30
2022-10-05T07:25:43.536Z,14.30
2022-10-05T07:28:13.111Z,14.31
2022-10-05T07:30:41.524Z,14.31
2022-10-05T07:33:09.768Z,14.32
2022-10-05T07:36:01.155Z,14.34
2022-10-05T07:38:32.619Z,14.34
2022-10-05T07:41:00.437Z,14.35
2022-10-05T07:43:45.221Z,14.37
2022-10-05T07:46:14.471Z,14.38
2022-10-05T07:48:46.234Z,14.39
2022-10-05T07:51:16.863Z,14.40
2022-10-05T07:53:45.908Z,14.40
2022-10-05T07:56:14.827Z,14.43
2022-10-05T07:58:44.547Z,14.44
2022-10-05T08:01:13.116Z,14.46
2022-10-05T08:03:44.398Z,14.47
2022-10-05T08:06:12.641Z,14.49
2022-10-05T08:08:46.180Z,14.52
2022-10-05T08:11:14.761Z,14.53
2022-10-05T08:13:43.592Z,14.54
2022-10-05T08:16:12.541Z,14.56
2022-10-05T08:18:42.305Z,14.57
2022-10-05T08:21:11.967Z,14.59
2022-10-05T08:23:42.387Z,14.61
2022-10-05T08:26:13.637Z,14.62
2022-10-05T08:28:42.591Z,14.62
2022-10-05T08:31:12.982Z,14.64
2022-10-05T08:33:43.464Z,14.66
2022-10-05T08:36:11.930Z,14.67
2022-10-05T08:38:40.786Z,14.69
2022-10-05T08:41:29.320Z,14.70
2022-10-05T08:44:11.076Z,14.72
2022-10-05T08:46:50.069Z,14.73
2022-10-05T08:49:21.938Z,14.75
2022-10-05T08:51:50.700Z,14.76
2022-10-05T08:54:36.612Z,14.78
2022-10-05T08:57:22.519Z,14.80
2022-10-05T09:00:10.885Z,14.81
2022-10-05T09:02:42.931Z,14.83
2022-10-05T09:05:14.273Z,14.85
2022-10-05T09:07:45.756Z,14.86
2022-10-05T09:10:23.546Z,14.89
2022-10-05T09:13:10.516Z,14.92
2022-10-05T09:15:46.021Z,14.96
2022-10-05T09:18:28.413Z,15.01
2022-10-05T09:20:56.049Z,15.04
2022-10-05T09:23:28.527Z,15.05
2022-10-05T09:25:57.939Z,15.06
2022-10-05T09:28:29.095Z,15.10
2022-10-05T09:31:02.546Z,15.12
2022-10-05T09:33:34.727Z,15.19
2022-10-05T09:36:20.903Z,15.28
2022-10-05T09:38:54.599Z,15.38
2022-10-05T09:41:27.308Z,15.45
2022-10-05T09:44:19.178Z,15.51
2022-10-05T09:46:54.725Z,15.58
2022-10-05T09:49:30.571Z,15.65
2022-10-05T09:52:11.594Z,15.69
2022-10-05T09:55:32.910Z,15.77
2022-10-05T09:58:06.693Z,15.83
2022-10-05T10:00:40.761Z,15.89
2022-10-05T10:03:16.525Z,15.96
2022-10-05T10:05:50.154Z,16.05
2022-10-05T10:08:23.402Z,16.11
2022-10-05T10:11:05.790Z,16.19
2022-10-05T10:13:42.001Z,16.26
2022-10-05T10:16:14.126Z,16.35
2022-10-05T10:19:03.010Z,16.43
2022-10-05T10:21:49.665Z,16.50
2022-10-05T10:24:19.536Z,16.54
2022-10-05T10:26:55.254Z,16.58
2022-10-05T10:29:40.497Z,16.64
2022-10-05T10:32:11.443Z,16.68
2022-10-05T10:34:52.903Z,16.76
2022-10-05T10:37:33.610Z,16.80
2022-10-05T10:40:09.085Z,16.84
2022-10-05T10:42:38.639Z,16.84
2022-10-05T10:45:09.109Z,16.84
2022-10-05T10:47:41.650Z,16.84
2022-10-05T10:50:13.037Z,16.84
2022-10-05T10:52:43.818Z,16.84
2022-10-05T10:55:21.765Z,16.82
2022-10-05T10:57:53.173Z,16.81
2022-10-05T11:00:24.834Z,16.81
2022-10-05T11:02:57.862Z,16.83
2022-10-05T11:05:39.683Z,16.84
2022-10-05T11:08:10.302Z,16.86
2022-10-05T11:10:46.494Z,16.89
2022-10-05T11:13:31.693Z,16.91
2022-10-05T11:16:13.497Z,16.95
2022-10-05T11:19:05.577Z,17.01
2022-10-05T11:21:36.829Z,17.10
2022-10-05T11:24:22.005Z,17.17
2022-10-05T11:26:56.787Z,17.19
2022-10-05T11:29:48.592Z,17.21
2022-10-05T11:32:33.676Z,17.21
2022-10-05T11:35:16.501Z,17.21
2022-10-05T11:38:01.678Z,17.18
2022-10-05T11:40:48.374Z,17.18
2022-10-05T11:43:36.770Z,17.15
2022-10-05T11:46:06.300Z,17.16
2022-10-05T11:48:35.393Z,17.15
2022-10-05T11:51:13.098Z,17.15
2022-10-05T11:53:41.003Z,17.13
2022-10-05T11:56:09.970Z,17.13
2022-10-05T11:58:39.521Z,17.14
2022-10-05T12:01:07.576Z,17.16
2022-10-05T12:03:38.652Z,17.15
2022-10-05T12:06:23.656Z,17.17
2022-10-05T12:08:54.736Z,17.18
2022-10-05T12:11:33.116Z,17.22
2022-10-05T12:14:02.683Z,17.26
2022-10-05T12:16:31.582Z,17.26
2022-10-05T12:19:00.177Z,17.26
2022-10-05T12:21:30.252Z,17.28
2022-10-05T12:23:58.688Z,17.29
2022-10-05T12:26:26.894Z,17.31
2022-10-05T12:28:55.186Z,17.33
2022-10-05T12:31:26.375Z,17.33
2022-10-05T12:33:56.861Z,17.34
2022-10-05T12:36:31.954Z,17.34
2022-10-05T12:39:09.407Z,17.35
2022-10-05T12:41:40.372Z,17.35
2022-10-05T12:44:11.285Z,17.36
2022-10-05T12:46:42.521Z,17.39
2022-10-05T12:49:22.153Z,17.42
2022-10-05T12:51:51.226Z,17.44
2022-10-05T12:54:20.709Z,17.46
2022-10-05T12:56:50.193Z,17.49
2022-10-05T12:59:21.209Z,17.50
2022-10-05T13:01:51.393Z,17.52
2022-10-05T13:04:21.158Z,17.57
2022-10-05T13:06:52.149Z,17.59
2022-10-05T13:09:19.852Z,17.62
2022-10-05T13:11:48.339Z,17.64
2022-10-05T13:14:18.251Z,17.67
2022-10-05T13:16:49.207Z,17.68
2022-10-05T13:19:28.923Z,17.71
2022-10-05T13:22:02.766Z,17.73
2022-10-05T13:24:31.282Z,17.75
2022-10-05T13:27:00.527Z,17.77
2022-10-05T13:29:29.500Z,17.78
2022-10-05T13:31:57.684Z,17.78
2022-10-05T13:34:29.358Z,17.79
2022-10-05T13:37:10.682Z,17.80
2022-10-05T13:39:47.640Z,17.80
2022-10-05T13:42:16.465Z,17.81
2022-10-05T13:44:45.229Z,17.81
2022-10-05T13:47:16.679Z,17.82
2022-10-05T13:49:48.177Z,17.82
2022-10-05T13:52:18.140Z,17.82
2022-10-05T13:54:47.200Z,17.82
2022-10-05T13:57:17.146Z,17.84
2022-10-05T13:59:45.843Z,17.85
2022-10-05T14:02:13.657Z,17.85
2022-10-05T14:07:15.429Z,17.89
2022-10-05T14:09:43.960Z,17.90
2022-10-05T14:12:15.359Z,17.92
2022-10-05T14:14:47.545Z,17.96
2022-10-05T14:17:41.800Z,18.01
2022-10-05T14:20:25.863Z,18.10
2022-10-05T14:22:57.711Z,18.17
2022-10-05T14:25:25.199Z,18.21
2022-10-05T14:27:54.361Z,18.22
2022-10-05T14:30:23.747Z,18.23
2022-10-05T14:32:55.964Z,18.23
2022-10-05T14:37:48.387Z,18.67
2022-10-05T14:40:25.846Z,18.92
2022-10-05T14:42:53.719Z,19.10
2022-10-05T14:45:22.476Z,19.26
2022-10-05T14:47:51.612Z,19.36
2022-10-05T14:50:21.383Z,19.47
2022-10-05T14:53:05.472Z,19.51
2022-10-05T14:56:08.395Z,19.59
2022-10-05T14:58:51.659Z,19.64
2022-10-05T15:01:26.414Z,19.62
2022-10-05T15:04:02.245Z,19.64
2022-10-05T15:06:35.472Z,19.67
2022-10-05T15:09:24.590Z,19.69
2022-10-05T15:11:54.854Z,19.68
2022-10-05T15:14:25.243Z,19.71
2022-10-05T15:16:54.373Z,19.72
2022-10-05T15:19:25.620Z,19.72
2022-10-05T15:22:15.539Z,19.74
2022-10-05T15:24:52.700Z,19.76
2022-10-05T15:27:26.176Z,19.77
2022-10-05T15:30:00.919Z,19.79
2022-10-05T15:32:42.099Z,19.80
2022-10-05T15:35:41.691Z,19.79
2022-10-05T15:38:20.931Z,19.78
2022-10-05T15:40:58.899Z,19.78
2022-10-05T15:43:36.069Z,19.78
2022-10-05T15:46:08.637Z,19.81
2022-10-05T15:48:43.518Z,19.82
2022-10-05T15:51:17.722Z,19.77
2022-10-05T15:53:48.206Z,19.81
2022-10-05T15:56:21.614Z,19.86
2022-10-05T15:58:56.809Z,19.87
2022-10-05T16:01:45.277Z,19.88
2022-10-05T16:04:16.273Z,19.87
2022-10-05T16:07:07.775Z,19.86
2022-10-05T16:09:42.989Z,19.84
2022-10-05T16:12:18.525Z,19.82
2022-10-05T16:14:55.923Z,19.80
2022-10-05T16:17:35.584Z,19.79
2022-10-05T16:20:22.222Z,19.77
2022-10-05T16:22:59.302Z,19.75
2022-10-05T16:25:31.783Z,19.71
2022-10-05T16:28:10.526Z,19.70
2022-10-05T16:30:44.988Z,19.66
2022-10-05T16:33:16.956Z,19.63
2022-10-05T16:35:49.483Z,19.62
2022-10-05T16:38:24.912Z,19.57
2022-10-05T16:41:02.163Z,19.56
2022-10-05T16:43:38.154Z,19.50
2022-10-05T16:46:11.246Z,19.45
2022-10-05T16:48:41.739Z,19.48
2022-10-05T16:51:24.923Z,19.44
2022-10-05T16:54:00.020Z,19.42
2022-10-05T16:58:19.310Z,19.30
2022-10-05T17:00:54.822Z,19.32
2022-10-05T17:03:28.687Z,19.28
2022-10-05T17:06:12.258Z,19.25
2022-10-05T17:08:57.778Z,19.24
2022-10-05T17:11:35.723Z,19.20
2022-10-05T17:14:54.219Z,19.16
2022-10-05T17:17:58.756Z,19.16
2022-10-05T17:20:42.934Z,19.09
2022-10-05T17:23:32.439Z,19.05
2022-10-05T17:27:02.895Z,18.99
2022-10-05T17:29:47.424Z,18.96
2022-10-05T17:32:41.240Z,18.92
2022-10-05T17:35:22.082Z,18.87
2022-10-05T17:38:14.170Z,18.84
2022-10-05T17:40:42.633Z,18.80
2022-10-05T17:43:27.682Z,18.74
2022-10-05T17:45:58.221Z,18.73
2022-10-05T17:49:07.716Z,18.71
2022-10-05T17:52:15.451Z,18.71
2022-10-05T17:55:30.546Z,18.62
2022-10-05T17:58:00.717Z,18.65
2022-10-05T18:00:49.888Z,18.65
2022-10-05T18:03:40.730Z,18.65
2022-10-05T18:06:39.332Z,18.62
2022-10-05T18:09:20.859Z,18.61
2022-10-05T18:12:10.996Z,18.60
2022-10-05T18:15:02.778Z,18.59
2022-10-05T18:17:41.966Z,18.57
2022-10-05T18:20:31.690Z,18.57
2022-10-05T18:23:29.670Z,18.56
2022-10-05T18:26:06.254Z,18.55
2022-10-05T18:28:44.521Z,18.52
2022-10-05T18:31:23.452Z,18.51
2022-10-05T18:34:26.243Z,18.53
2022-10-05T18:37:07.032Z,18.54
2022-10-05T18:39:51.846Z,18.52
2022-10-05T18:42:25.235Z,18.55
2022-10-05T18:44:56.493Z,18.53
2022-10-05T18:47:29.848Z,18.56
2022-10-05T18:50:21.288Z,18.57
2022-10-05T18:52:59.299Z,18.55
2022-10-05T18:55:32.925Z,18.58
2022-10-05T18:58:26.444Z,18.57
2022-10-05T19:01:28.001Z,18.58
2022-10-05T19:04:14.329Z,18.59
2022-10-05T19:06:50.129Z,18.60
2022-10-05T19:09:27.876Z,18.53
2022-10-05T19:11:58.893Z,18.58
2022-10-05T19:14:34.689Z,18.55
2022-10-05T19:17:19.874Z,18.58
2022-10-05T19:20:00.030Z,18.56
2022-10-05T19:22:40.278Z,18.60
2022-10-05T19:25:22.621Z,18.62
2022-10-05T19:27:57.832Z,18.63
2022-10-05T19:30:27.336Z,18.60
2022-10-05T19:33:04.905Z,18.64
2022-10-05T19:35:35.211Z,18.65
2022-10-05T19:38:15.683Z,18.66
2022-10-05T19:40:47.466Z,18.66
2022-10-05T19:43:25.842Z,18.62
2022-10-05T19:46:01.716Z,18.66
2022-10-05T19:48:34.020Z,18.67
2022-10-05T19:51:02.915Z,18.67
2022-10-05T19:53:36.372Z,18.67
2022-10-05T19:56:19.015Z,18.66
2022-10-05T19:58:47.431Z,18.68
2022-10-05T20:01:25.046Z,18.69
2022-10-05T20:03:53.860Z,18.73
2022-10-05T20:06:22.567Z,18.73
2022-10-05T20:08:53.050Z,18.75
2022-10-05T20:11:21.577Z,18.75
2022-10-05T20:14:19.025Z,18.77
2022-10-05T20:17:06.414Z,18.76
2022-10-05T20:20:02.296Z,18.76
2022-10-05T20:22:34.204Z,18.78
2022-10-05T20:25:06.184Z,18.79
2022-10-05T20:27:44.049Z,18.80
2022-10-05T20:30:13.221Z,18.80
2022-10-05T20:32:41.507Z,18.81
2022-10-05T20:35:09.760Z,18.84
2022-10-05T20:37:37.864Z,18.82
2022-10-05T20:40:08.044Z,18.84
2022-10-05T20:42:35.644Z,18.82
2022-10-05T20:45:04.072Z,18.81
2022-10-05T20:47:32.079Z,18.83
2022-10-05T20:49:59.704Z,18.82
2022-10-05T20:52:27.332Z,18.84
2022-10-05T20:54:56.565Z,18.82
2022-10-05T20:57:26.623Z,18.80
2022-10-05T20:59:54.683Z,18.78
2022-10-05T21:02:22.319Z,18.74
2022-10-05T21:04:50.210Z,18.56
2022-10-05T21:07:21.075Z,18.33
2022-10-05T21:09:48.802Z,18.15
2022-10-05T21:12:17.318Z,17.90
2022-10-05T21:14:47.608Z,17.72
2022-10-05T21:17:15.322Z,17.53
2022-10-05T21:19:43.144Z,17.41
2022-10-05T21:22:11.319Z,17.34
2022-10-05T21:24:40.341Z,17.22
2022-10-05T21:27:08.492Z,17.15
2022-10-05T21:29:37.010Z,17.08
2022-10-05T21:32:08.609Z,17.04
2022-10-05T21:34:36.437Z,16.99
2022-10-05T21:37:04.331Z,16.99
2022-10-05T21:39:33.540Z,16.95
2022-10-05T21:42:01.787Z,16.89
2022-10-05T21:44:29.516Z,16.86
2022-10-05T21:46:57.549Z,16.82
2022-10-05T21:49:27.000Z,16.78
2022-10-05T21:51:55.133Z,16.73
2022-10-05T21:54:23.661Z,16.67
2022-10-05T21:56:52.540Z,16.65
2022-10-05T21:59:21.766Z,16.61
2022-10-05T22:01:49.393Z,16.63
2022-10-05T22:04:17.324Z,16.62
2022-10-05T22:06:46.454Z,16.58
2022-10-05T22:09:14.037Z,16.59
2022-10-05T22:11:41.756Z,16.56
2022-10-05T22:14:09.428Z,16.58
2022-10-05T22:16:38.476Z,16.57
2022-10-05T22:19:07.854Z,16.62
2022-10-05T22:21:38.144Z,16.64
2022-10-05T22:24:07.541Z,16.68
2022-10-05T22:26:35.911Z,16.67
2022-10-05T22:29:03.874Z,16.64
2022-10-05T22:31:31.828Z,16.63
2022-10-05T22:33:59.590Z,16.60
2022-10-05T22:36:27.343Z,16.56
2022-10-05T22:38:55.076Z,16.48
2022-10-05T22:41:24.069Z,16.49
2022-10-05T22:43:51.981Z,16.49
2022-10-05T22:46:20.249Z,16.47
2022-10-05T22:48:48.019Z,16.47
2022-10-05T22:51:15.640Z,16.46
2022-10-05T22:53:43.311Z,16.45
2022-10-05T22:56:12.555Z,16.48
2022-10-05T22:58:42.597Z,16.48
2022-10-05T23:01:11.997Z,16.44
2022-10-05T23:03:39.664Z,16.42
2022-10-05T23:06:09.592Z,16.43
2022-10-05T23:08:38.097Z,16.39
2022-10-05T23:11:06.697Z,16.43
2022-10-05T23:13:34.599Z,16.46
2022-10-05T23:16:08.469Z,16.47
2022-10-05T23:18:36.407Z,16.49
2022-10-05T23:21:05.637Z,16.50
2022-10-05T23:23:33.431Z,16.52
2022-10-05T23:26:01.490Z,16.53
2022-10-05T23:28:29.622Z,16.53
2022-10-05T23:31:00.956Z,16.49
2022-10-05T23:33:30.053Z,16.52
2022-10-05T23:36:01.128Z,16.52
2022-10-05T23:38:29.972Z,16.49
2022-10-05T23:40:58.576Z,16.47
2022-10-05T23:43:26.432Z,16.46
2022-10-05T23:45:54.249Z,16.42
2022-10-05T23:48:22.179Z,16.38
2022-10-05T23:50:51.725Z,16.31
2022-10-05T23:53:20.075Z,16.34
2022-10-05T23:55:50.724Z,16.32
2022-10-05T23:58:18.716Z,16.30
